sensor_id;sensor_type;location;lat;lon;timestamp;pressure;altitude;pressure_sealevel;temperature;humidity
15558;BME280;7880;50.110;9.372;2024-02-26T00:04:07;4.1897487366164565;;;4.187;100.0
15558;BME280;7880;50.110;9.372;2024-02-26T00:09:19;4.1897487366164565;;;4.25;100.0
15558;BME280;7880;50.110;9.372;2024-02-26T00:14:22;4.295629467163235;;;4.312;100.0
15558;BME280;7880;50.110;9.372;2024-02-26T00:19:29;4.255293935630471;;;4.25;100.0
15558;BME280;7880;50.110;9.372;2024-02-26T00:24:40;4.290587524703005;;;4.312;100.0
15558;BME280;7880;50.110;9.372;2024-02-26T00:29:44;4.3561327993869785;;;4.312;100.0
15558;BME280;7880;50.110;9.372;2024-02-26T00:34:51;4.255293935630471;;;4.312;100.0
15558;BME280;7880;50.110;9.372;2024-02-26T00:39:58;4.27041975777247;;;4.312;100.0
15558;BME280;7880;50.110;9.372;2024-02-26T00:45:08;4.295629467163235;;;4.312;100.0
15558;BME280;7880;50.110;9.372;2024-02-26T00:50:12;4.351090853434289;;;4.312;100.0
15558;BME280;7880;50.110;9.372;2024-02-26T00:55:20;4.335965017322451;;;4.312;100.0
15558;BME280;7880;50.110;9.372;2024-02-26T01:00:35;4.220000360818813;;;4.25;100.0
15558;BME280;7880;50.110;9.372;2024-02-26T01:05:38;4.346048907772638;;;4.312;100.0
15558;BME280;7880;50.110;9.372;2024-02-26T01:10:41;4.265377816767431;;;4.312;100.0
15558;BME280;7880;50.110;9.372;2024-02-26T01:15:48;4.05865848614485;;;4.125;100.0
15558;BME280;7880;50.110;9.372;2024-02-26T01:20:56;4.214958422724157;;;4.187;100.0
15558;BME280;7880;50.110;9.372;2024-02-26T01:26:03;4.245210055657663;;;4.25;100.0
15558;BME280;7880;50.110;9.372;2024-02-26T01:31:09;4.325881128036417;;;4.312;100.0
15558;BME280;7880;50.110;9.372;2024-02-26T01:36:16;4.275461699068546;;;4.312;100.0
15558;BME280;7880;50.110;9.372;2024-02-26T01:41:24;4.27041975777247;;;4.25;100.0
15558;BME280;7880;50.110;9.372;2024-02-26T01:46:33;4.325881128036417;;;4.312;100.0
15558;BME280;7880;50.110;9.372;2024-02-26T01:51:39;4.310755296290154;;;4.312;100.0
15558;BME280;7880;50.110;9.372;2024-02-26T01:56:44;4.11916165422299;;;4.187;100.0
15558;BME280;7880;50.110;9.372;2024-02-26T02:01:57;4.285545582533814;;;4.25;100.0
15558;BME280;7880;50.110;9.372;2024-02-26T02:07:00;4.129245519643883;;;4.187;100.0
15558;BME280;7880;50.110;9.372;2024-02-26T02:12:11;4.149413253978127;;;4.125;100.0
15558;BME280;7880;50.110;9.372;2024-02-26T02:17:20;4.260335876053432;;;4.25;100.0
15558;BME280;7880;50.110;9.372;2024-02-26T02:21:25;4.3561327993869785;;;4.312;100.0
15558;BME280;7880;50.110;9.372;2024-02-26T02:26:33;4.3813425335159994;;;4.375;100.0
15558;BME280;7880;50.110;9.372;2024-02-26T02:31:42;4.472097636625404;;;4.5;100.0
15558;BME280;7880;50.110;9.372;2024-02-26T02:36:49;4.492265450122067;;;4.5;100.0
15558;BME280;7880;50.110;9.372;2024-02-26T02:41:53;4.482181542791659;;;4.5;100.0
15558;BME280;7880;50.110;9.372;2024-02-26T02:47:01;4.472097636625404;;;4.5;100.0
15558;BME280;7880;50.110;9.372;2024-02-26T02:52:20;4.441845925111556;;;4.5;100.0
15558;BME280;7880;50.110;9.372;2024-02-26T02:57:18;4.431762023601914;;;4.437;100.0
15558;BME280;7880;50.110;9.372;2024-02-26T03:02:25;4.446887876302935;;;4.437;100.0
15558;BME280;7880;50.110;9.372;2024-02-26T03:07:45;4.42672007328365;;;4.437;100.0
15558;BME280;7880;50.110;9.372;2024-02-26T03:12:39;4.431762023601914;;;4.437;100.0
15558;BME280;7880;50.110;9.372;2024-02-26T03:17:43;4.3813425335159994;;;4.375;100.0
15558;BME280;7880;50.110;9.372;2024-02-26T03:22:53;4.361174745630706;;;4.437;100.0
15558;BME280;7880;50.110;9.372;2024-02-26T03:27:57;4.512433268275345;;;4.5;100.0
15558;BME280;7880;50.110;9.372;2024-02-26T03:33:04;4.376300586108118;;;4.437;100.0
15558;BME280;7880;50.110;9.372;2024-02-26T03:38:12;4.376300586108118;;;4.375;100.0
15558;BME280;7880;50.110;9.372;2024-02-26T03:43:18;4.386384481214918;;;4.437;100.0
15558;BME280;7880;50.110;9.372;2024-02-26T03:48:26;4.194790673255921;;;4.312;100.0
15558;BME280;7880;50.110;9.372;2024-02-26T03:53:37;4.325881128036417;;;4.375;100.0
15558;BME280;7880;50.110;9.372;2024-02-26T03:58:40;4.225042299204506;;;4.312;100.0
15558;BME280;7880;50.110;9.372;2024-02-26T04:03:47;4.351090853434289;;;4.375;100.0
15558;BME280;7880;50.110;9.372;2024-02-26T04:08:54;4.285545582533814;;;4.312;100.0
15558;BME280;7880;50.110;9.372;2024-02-26T04:14:03;4.265377816767431;;;4.312;100.0
15558;BME280;7880;50.110;9.372;2024-02-26T04:19:17;4.280503640655661;;;4.312;100.0
15558;BME280;7880;50.110;9.372;2024-02-26T04:24:17;4.0485746288730295;;;4.187;100.0
15558;BME280;7880;50.110;9.372;2024-02-26T04:29:23;4.15949712289148;;;4.187;100.0
15558;BME280;7880;50.110;9.372;2024-02-26T04:34:32;4.11916165422299;;;4.187;100.0
15558;BME280;7880;50.110;9.372;2024-02-26T04:39:42;4.078826204180951;;;4.125;100.0
15558;BME280;7880;50.110;9.372;2024-02-26T04:44:54;4.169580992968986;;;4.125;100.0
15558;BME280;7880;50.110;9.372;2024-02-26T04:49:50;4.11916165422299;;;4.125;100.0
15558;BME280;7880;50.110;9.372;2024-02-26T04:55:04;4.008239211427281;;;4.062;100.0
15558;BME280;7880;50.110;9.372;2024-02-26T05:00:06;3.9628618890652434;;;4.0;100.0
15558;BME280;7880;50.110;9.372;2024-02-26T05:05:13;3.9880715096893256;;;4.0;100.0
15558;BME280;7880;50.110;9.372;2024-02-26T05:10:21;3.972945736441761;;;4.0;100.0
15558;BME280;7880;50.110;9.372;2024-02-26T05:15:24;3.826730063423747;;;3.937;100.0
15558;BME280;7880;50.110;9.372;2024-02-26T05:20:35;4.038490772765362;;;4.062;100.0
15558;BME280;7880;50.110;9.372;2024-02-26T05:25:40;3.9830295849824324;;;4.062;100.0
15558;BME280;7880;50.110;9.372;2024-02-26T05:30:48;4.023364990786649;;;4.0;100.0
15558;BME280;7880;50.110;9.372;2024-02-26T05:36:04;4.10907778996625;;;4.125;100.0
15558;BME280;7880;50.110;9.372;2024-02-26T05:41:00;4.078826204180951;;;4.062;100.0
15558;BME280;7880;50.110;9.372;2024-02-26T05:46:17;4.008239211427281;;;4.0;100.0
15558;BME280;7880;50.110;9.372;2024-02-26T05:51:17;4.038490772765362;;;4.062;100.0
15558;BME280;7880;50.110;9.372;2024-02-26T05:56:21;4.053616557363421;;;4.062;100.0
15558;BME280;7880;50.110;9.372;2024-02-26T06:01:36;4.038490772765362;;;4.0;100.0
15558;BME280;7880;50.110;9.372;2024-02-26T06:06:47;4.144371319958009;;;4.062;100.0
15558;BME280;7880;50.110;9.372;2024-02-26T06:11:51;4.179664864210645;;;4.125;100.0
15558;BME280;7880;50.110;9.372;2024-02-26T06:17:03;4.255293935630471;;;4.25;100.0
15558;BME280;7880;50.110;9.372;2024-02-26T06:22:05;4.154455188289285;;;4.187;100.0
15558;BME280;7880;50.110;9.372;2024-02-26T06:27:12;3.9880715096893256;;;4.062;100.0
15558;BME280;7880;50.110;9.372;2024-02-26T06:32:19;4.154455188289285;;;4.187;100.0
15558;BME280;7880;50.110;9.372;2024-02-26T06:37:36;4.104035858274438;;;4.187;100.0
15558;BME280;7880;50.110;9.372;2024-02-26T06:42:35;4.260335876053432;;;4.25;100.0
15558;BME280;7880;50.110;9.372;2024-02-26T06:47:46;4.290587524703005;;;4.312;100.0
15558;BME280;7880;50.110;9.372;2024-02-26T06:52:48;4.361174745630706;;;4.375;100.0
15558;BME280;7880;50.110;9.372;2024-02-26T06:57:54;4.290587524703005;;;4.375;100.0
15558;BME280;7880;50.110;9.372;2024-02-26T07:03:01;4.3561327993869785;;;4.375;100.0
15558;BME280;7880;50.110;9.372;2024-02-26T07:08:08;4.391426429204875;;;4.375;100.0
15558;BME280;7880;50.110;9.372;2024-02-26T07:13:16;4.441845925111556;;;4.375;100.0
15558;BME280;7880;50.110;9.372;2024-02-26T07:18:26;4.401510326057905;;;4.375;100.0
15558;BME280;7880;50.110;9.372;2024-02-26T07:23:29;4.3964683774858715;;;4.375;100.0
15558;BME280;7880;50.110;9.372;2024-02-26T07:27:48;4.310755296290154;;;4.375;100.0
15558;BME280;7880;50.110;9.372;2024-02-26T07:32:51;4.487223496311344;;;4.5;100.0
15558;BME280;7880;50.110;9.372;2024-02-26T07:37:55;4.451929827785352;;;4.437;100.0
15558;BME280;7880;50.110;9.372;2024-02-26T07:43:02;4.325881128036417;;;4.375;100.0
15558;BME280;7880;50.110;9.372;2024-02-26T07:48:09;4.436803974211216;;;4.437;100.0
15558;BME280;7880;50.110;9.372;2024-02-26T07:53:16;4.310755296290154;;;4.375;100.0
15558;BME280;7880;50.110;9.372;2024-02-26T07:58:22;4.462013731623301;;;4.437;100.0
15558;BME280;7880;50.110;9.372;2024-02-26T08:03:29;4.325881128036417;;;4.375;100.0
15558;BME280;7880;50.110;9.372;2024-02-26T08:08:36;4.376300586108118;;;4.375;100.0
15558;BME280;7880;50.110;9.372;2024-02-26T08:13:43;4.361174745630706;;;4.437;100.0
15558;BME280;7880;50.110;9.372;2024-02-26T08:18:50;4.3813425335159994;;;4.437;100.0
15558;BME280;7880;50.110;9.372;2024-02-26T08:23:59;4.467055683978833;;;4.5;100.0
15558;BME280;7880;50.110;9.372;2024-02-26T08:29:11;4.3964683774858715;;;4.5;100.0
15558;BME280;7880;50.110;9.372;2024-02-26T08:34:13;4.688901875750162;;;4.625;100.0
15558;BME280;7880;50.110;9.372;2024-02-26T08:39:20;4.618314389977604;;;4.562;100.0
15558;BME280;7880;50.110;9.372;2024-02-26T08:44:25;4.668734016851522;;;4.625;100.0
15558;BME280;7880;50.110;9.372;2024-02-26T08:49:32;4.653608125733444;;;4.687;100.0
15558;BME280;7880;50.110;9.372;2024-02-26T08:54:41;4.749405480385758;;;4.687;100.0
15558;BME280;7880;50.110;9.372;2024-02-26T08:59:45;4.764531388093019;;;4.75;100.0
15558;BME280;7880;50.110;9.372;2024-02-26T09:04:55;4.925874566618586;;;4.812;100.0
15558;BME280;7880;50.110;9.372;2024-02-26T09:09:58;5.031756189488806;;;4.937;100.0
15558;BME280;7880;50.110;9.372;2024-02-26T09:15:06;5.1073859986907335;;;5.0;100.0
15558;BME280;7880;50.110;9.372;2024-02-26T09:20:20;5.208225846156711;;;5.125;100.0
15558;BME280;7880;50.110;9.372;2024-02-26T09:25:21;5.208225846156711;;;5.125;100.0
15558;BME280;7880;50.110;9.372;2024-02-26T09:30:26;5.2888978079485245;;;5.187;100.0
15558;BME280;7880;50.110;9.372;2024-02-26T09:35:34;5.2687298105156515;;;5.187;100.0
15558;BME280;7880;50.110;9.372;2024-02-26T09:40:42;5.364527839794755;;;5.312;100.0
15558;BME280;7880;50.110;9.372;2024-02-26T09:45:54;5.5309141403588;;;5.437;100.0
15558;BME280;7880;50.110;9.372;2024-02-26T09:50:56;5.67209064392955;;;5.562;100.0
15558;BME280;7880;50.110;9.372;2024-02-26T09:56:06;5.752763034129748;;;5.562;100.0
15558;BME280;7880;50.110;9.372;2024-02-26T10:01:11;5.7477210075594485;;;5.687;100.0
15558;BME280;7880;50.110;9.372;2024-02-26T10:06:28;5.803183315839851;;;5.687;100.0
15558;BME280;7880;50.110;9.372;2024-02-26T10:11:34;5.752763034129748;;;5.687;100.0
15558;BME280;7880;50.110;9.372;2024-02-26T10:16:41;5.601502363622421;;;5.5;100.0
15558;BME280;7880;50.110;9.372;2024-02-26T10:21:48;5.6468805372715;;;5.562;100.0
15558;BME280;7880;50.110;9.372;2024-02-26T10:26:56;5.813267375674331;;;5.625;100.0
15558;BME280;7880;50.110;9.372;2024-02-26T10:32:01;6.3527662740089;;;6.062;100.0
15558;BME280;7880;50.110;9.372;2024-02-26T10:37:17;6.206546617258573;;;6.062;100.0
15558;BME280;7880;50.110;9.372;2024-02-26T10:42:18;6.100663570337929;;;5.937;100.0
15558;BME280;7880;50.110;9.372;2024-02-26T10:47:33;6.014948816836113;;;5.875;100.0
15558;BME280;7880;50.110;9.372;2024-02-26T10:52:35;6.176294305041665;;;6.0;100.0
15558;BME280;7880;50.110;9.372;2024-02-26T10:57:40;6.176294305041665;;;6.062;100.0
15558;BME280;7880;50.110;9.372;2024-02-26T11:02:45;6.161168152862229;;;6.062;100.0
15558;BME280;7880;50.110;9.372;2024-02-26T11:07:54;6.161168152862229;;;6.062;100.0
15558;BME280;7880;50.110;9.372;2024-02-26T11:12:59;6.216630723659182;;;6.062;100.0
15558;BME280;7880;50.110;9.372;2024-02-26T11:18:08;6.423355161421933;;;6.25;100.0
15558;BME280;7880;50.110;9.372;2024-02-26T11:23:12;6.6502484001743145;;;6.437;100.0
15558;BME280;7880;50.110;9.372;2024-02-26T11:28:20;6.549406887969235;;;6.375;100.0
15558;BME280;7880;50.110;9.372;2024-02-26T11:33:26;6.57965932940715;;;6.437;100.0
15558;BME280;7880;50.110;9.372;2024-02-26T11:38:34;6.6502484001743145;;;6.5;100.0
15558;BME280;7880;50.110;9.372;2024-02-26T11:43:59;6.816637149825692;;;6.625;100.0
15558;BME280;7880;50.110;9.372;2024-02-26T11:48:48;7.063699817337328;;;6.875;100.0
15558;BME280;7880;50.110;9.372;2024-02-26T11:53:57;7.477153191441903;;;7.625;100.0
15558;BME280;7880;50.110;9.372;2024-02-26T11:59:03;7.250257804826833;;;7.187;100.0
15558;BME280;7880;50.110;9.372;2024-02-26T12:04:13;7.2855526040366385;;;7.125;100.0
15558;BME280;7880;50.110;9.372;2024-02-26T12:09:31;7.305721067130799;;;7.125;100.0
15558;BME280;7880;50.110;9.372;2024-02-26T12:14:26;7.240173579100519;;;7.125;100.0
15558;BME280;7880;50.110;9.372;2024-02-26T12:19:30;7.366226484352955;;;7.187;100.0
15558;BME280;7880;50.110;9.372;2024-02-26T12:24:41;7.729259867785731;;;7.437;100.0
15558;BME280;7880;50.110;9.372;2024-02-26T12:29:43;7.739344149973476;;;7.562;100.0
15558;BME280;7880;50.110;9.372;2024-02-26T12:33:54;7.502363826334476;;;7.375;100.0
15558;BME280;7880;50.110;9.372;2024-02-26T12:39:06;7.830102742050076;;;7.562;100.0
15558;BME280;7880;50.110;9.372;2024-02-26T12:44:08;8.021704523876542;;;7.812;100.0
15558;BME280;7880;50.110;9.372;2024-02-26T12:49:16;8.107421246543527;;;7.937;100.0
15558;BME280;7880;50.110;9.372;2024-02-26T12:54:24;8.056999634788372;;;7.875;100.0
15558;BME280;7880;50.110;9.372;2024-02-26T12:59:32;8.082210437027971;;;7.875;100.0
15558;BME280;7880;50.110;9.372;2024-02-26T13:04:40;7.920861428423086;;;7.812;100.0
15558;BME280;7880;50.110;9.372;2024-02-26T13:09:46;8.147758556902408;;;7.937;100.0
15558;BME280;7880;50.110;9.372;2024-02-26T13:14:59;8.228433233499526;;;8.125;100.0
15558;BME280;7880;50.110;9.372;2024-02-26T13:19:59;8.268770599737763;;;8.125;100.0
15558;BME280;7880;50.110;9.372;2024-02-26T13:25:20;8.732651650253683;;;8.5;100.0
15558;BME280;7880;50.110;9.372;2024-02-26T13:30:12;8.929297621647128;;;8.75;100.0
15558;BME280;7880;50.110;9.372;2024-02-26T13:35:20;8.778031450515845;;;8.75;100.0
15558;BME280;7880;50.110;9.372;2024-02-26T13:40:26;8.596512390911812;;;8.5;100.0
15558;BME280;7880;50.110;9.372;2024-02-26T13:45:37;8.91417099274695;;;8.75;100.0
15558;BME280;7880;50.110;9.372;2024-02-26T13:50:41;9.196535164117813;;;9.0;100.0
15558;BME280;7880;50.110;9.372;2024-02-26T13:55:47;9.383097706647822;;;9.25;100.0
15558;BME280;7880;50.110;9.372;2024-02-26T14:01:03;9.35788652896881;;;9.25;100.0
15558;BME280;7880;50.110;9.372;2024-02-26T14:06:03;9.231830749713117;;;9.125;100.0
15558;BME280;7880;50.110;9.372;2024-02-26T14:11:11;9.211661841912427;;;9.187;100.0
15558;BME280;7880;50.110;9.372;2024-02-26T14:16:20;9.085606273659504;;;9.0;100.0
15558;BME280;7880;50.110;9.372;2024-02-26T14:21:25;9.025099665508606;;;8.937;100.0
15558;BME280;7880;50.110;9.372;2024-02-26T14:26:35;9.030141881253803;;;8.937;100.0
15558;BME280;7880;50.110;9.372;2024-02-26T14:31:39;9.060395181836792;;;9.0;100.0
15558;BME280;7880;50.110;9.372;2024-02-26T14:36:52;9.161239592783385;;;9.062;100.0
15558;BME280;7880;50.110;9.372;2024-02-26T14:41:59;9.292337501054863;;;9.187;100.0
15558;BME280;7880;50.110;9.372;2024-02-26T14:47:02;9.14611292371992;;;9.062;100.0
15558;BME280;7880;50.110;9.372;2024-02-26T14:52:07;9.100732932245592;;;9.0;100.0
15558;BME280;7880;50.110;9.372;2024-02-26T14:57:14;8.95450867563486;;;8.937;100.0
15558;BME280;7880;50.110;9.372;2024-02-26T15:02:26;8.95450867563486;;;8.875;100.0
15558;BME280;7880;50.110;9.372;2024-02-26T15:07:27;8.894002158287913;;;8.875;100.0
15558;BME280;7880;50.110;9.372;2024-02-26T15:12:33;8.949466464255238;;;8.875;100.0
15558;BME280;7880;50.110;9.372;2024-02-26T15:17:41;9.009973020019242;;;8.937;100.0
15558;BME280;7880;50.110;9.372;2024-02-26T15:22:48;8.96963531151996;;;8.875;100.0
15558;BME280;7880;50.110;9.372;2024-02-26T15:27:55;8.878875535499537;;;8.875;100.0
15558;BME280;7880;50.110;9.372;2024-02-26T15:33:01;8.803242460847832;;;8.812;100.0
15558;BME280;7880;50.110;9.372;2024-02-26T15:38:08;8.68222967761103;;;8.687;100.0
15558;BME280;7880;50.110;9.372;2024-02-26T15:43:23;8.636849927116419;;;8.625;100.0
15558;BME280;7880;50.110;9.372;2024-02-26T15:48:24;8.586428009771044;;;8.5;100.0
15558;BME280;7880;50.110;9.372;2024-02-26T15:53:28;8.581385819637216;;;8.5;100.0
15558;BME280;7880;50.110;9.372;2024-02-26T15:58:43;8.596512390911812;;;8.5;100.0
15558;BME280;7880;50.110;9.372;2024-02-26T16:03:56;8.621723348856904;;;8.5;100.0
15558;BME280;7880;50.110;9.372;2024-02-26T16:08:49;8.621723348856904;;;8.562;100.0
15558;BME280;7880;50.110;9.372;2024-02-26T16:14:03;8.601554581918753;;;8.562;100.0
15558;BME280;7880;50.110;9.372;2024-02-26T16:19:12;8.515837374381954;;;8.437;100.0
15558;BME280;7880;50.110;9.372;2024-02-26T16:24:18;8.520879560732283;;;8.437;100.0
15558;BME280;7880;50.110;9.372;2024-02-26T16:29:17;8.414993708493421;;;8.375;100.0
15558;BME280;7880;50.110;9.372;2024-02-26T16:34:24;8.278854944207705;;;8.187;100.0
15558;BME280;7880;50.110;9.372;2024-02-26T16:39:35;8.193138053320581;;;8.125;100.0
15558;BME280;7880;50.110;9.372;2024-02-26T16:44:39;8.15280072200694;;;8.125;100.0
15558;BME280;7880;50.110;9.372;2024-02-26T16:49:46;8.172969385335454;;;8.062;100.0
15558;BME280;7880;50.110;9.372;2024-02-26T16:54:56;8.117505572387017;;;8.062;100.0
15558;BME280;7880;50.110;9.372;2024-02-26T17:00:02;8.107421246543527;;;8.0;100.0
15558;BME280;7880;50.110;9.372;2024-02-26T17:05:10;8.102379084058338;;;8.0;100.0
15558;BME280;7880;50.110;9.372;2024-02-26T17:10:15;8.021704523876542;;;7.937;100.0
15558;BME280;7880;50.110;9.372;2024-02-26T17:15:22;8.062041794654215;;;7.937;100.0
15558;BME280;7880;50.110;9.372;2024-02-26T17:20:30;7.951114344835514;;;7.875;100.0
15558;BME280;7880;50.110;9.372;2024-02-26T17:25:39;8.021704523876542;;;7.937;100.0
15558;BME280;7880;50.110;9.372;2024-02-26T17:30:52;8.021704523876542;;;7.937;100.0
15558;BME280;7880;50.110;9.372;2024-02-26T17:35:52;8.026746681705117;;;7.937;100.0
15558;BME280;7880;50.110;9.372;2024-02-26T17:40:07;7.951114344835514;;;7.875;100.0
15558;BME280;7880;50.110;9.372;2024-02-26T17:45:13;7.946072191372513;;;7.812;100.0
15558;BME280;7880;50.110;9.372;2024-02-26T17:50:24;7.96119865263463;;;7.875;100.0
15558;BME280;7880;50.110;9.372;2024-02-26T17:55:23;7.855313478806056;;;7.812;100.0
15558;BME280;7880;50.110;9.372;2024-02-26T18:00:33;7.804892012570053;;;7.687;100.0
15558;BME280;7880;50.110;9.372;2024-02-26T18:05:42;7.759512717841426;;;7.687;100.0
15558;BME280;7880;50.110;9.372;2024-02-26T18:10:47;7.628417109936708;;;7.562;100.0
15558;BME280;7880;50.110;9.372;2024-02-26T18:15:52;7.59312217219267;;;7.5;100.0
15558;BME280;7880;50.110;9.372;2024-02-26T18:20:58;7.59312217219267;;;7.5;100.0
15558;BME280;7880;50.110;9.372;2024-02-26T18:26:06;7.5074059541861065;;;7.437;100.0
15558;BME280;7880;50.110;9.372;2024-02-26T18:31:13;7.56286937976256;;;7.437;100.0
15558;BME280;7880;50.110;9.372;2024-02-26T18:36:46;7.411605574772693;;;7.312;100.0
15558;BME280;7880;50.110;9.372;2024-02-26T18:41:27;7.184710358415032;;;7.125;100.0
15558;BME280;7880;50.110;9.372;2024-02-26T18:46:44;7.139331385865807;;;7.062;100.0
15558;BME280;7880;50.110;9.372;2024-02-26T18:51:43;7.2200051311403515;;;7.125;100.0
15558;BME280;7880;50.110;9.372;2024-02-26T18:56:50;7.184710358415032;;;7.125;100.0
15558;BME280;7880;50.110;9.372;2024-02-26T19:02:00;7.431774066970684;;;7.25;100.0
15558;BME280;7880;50.110;9.372;2024-02-26T19:07:03;7.467068939522141;;;7.312;100.0
15558;BME280;7880;50.110;9.372;2024-02-26T19:12:13;7.346058007288957;;;7.25;100.0
15558;BME280;7880;50.110;9.372;2024-02-26T19:17:18;7.280510488990695;;;7.25;100.0
15558;BME280;7880;50.110;9.372;2024-02-26T19:22:22;7.366226484352955;;;7.25;100.0
15558;BME280;7880;50.110;9.372;2024-02-26T19:27:29;7.325889534881571;;;7.187;100.0
15558;BME280;7880;50.110;9.372;2024-02-26T19:32:39;7.346058007288957;;;7.25;100.0
15558;BME280;7880;50.110;9.372;2024-02-26T19:37:43;7.204878798226128;;;7.125;100.0
15558;BME280;7880;50.110;9.372;2024-02-26T19:42:53;7.189752467931248;;;7.125;100.0
15558;BME280;7880;50.110;9.372;2024-02-26T19:47:59;7.305721067130799;;;7.187;100.0
15558;BME280;7880;50.110;9.372;2024-02-26T19:53:14;7.270426259771921;;;7.187;100.0
15558;BME280;7880;50.110;9.372;2024-02-26T19:58:10;7.341015888750553;;;7.25;100.0
15558;BME280;7880;50.110;9.372;2024-02-26T20:03:20;7.341015888750553;;;7.187;100.0
15558;BME280;7880;50.110;9.372;2024-02-26T20:08:25;7.225047242693836;;;7.125;100.0
15558;BME280;7880;50.110;9.372;2024-02-26T20:13:38;7.275468374235788;;;7.125;100.0
15558;BME280;7880;50.110;9.372;2024-02-26T20:18:39;7.265384145599091;;;7.187;100.0
15558;BME280;7880;50.110;9.372;2024-02-26T20:23:48;7.2855526040366385;;;7.187;100.0
15558;BME280;7880;50.110;9.372;2024-02-26T20:29:00;7.35614224523888;;;7.187;100.0
15558;BME280;7880;50.110;9.372;2024-02-26T20:34:03;7.371268604346551;;;7.25;100.0
15558;BME280;7880;50.110;9.372;2024-02-26T20:39:10;7.441858314815908;;;7.375;100.0
15558;BME280;7880;50.110;9.372;2024-02-26T20:44:25;7.497321698773885;;;7.437;100.0
15558;BME280;7880;50.110;9.372;2024-02-26T20:49:25;7.446900439175079;;;7.375;100.0
15558;BME280;7880;50.110;9.372;2024-02-26T20:54:28;7.436816190747777;;;7.375;100.0
15558;BME280;7880;50.110;9.372;2024-02-26T20:59:36;7.502363826334476;;;7.375;100.0
15558;BME280;7880;50.110;9.372;2024-02-26T21:04:43;7.497321698773885;;;7.437;100.0
15558;BME280;7880;50.110;9.372;2024-02-26T21:09:53;7.497321698773885;;;7.375;100.0
15558;BME280;7880;50.110;9.372;2024-02-26T21:15:00;7.446900439175079;;;7.375;100.0
15558;BME280;7880;50.110;9.372;2024-02-26T21:20:05;7.492279571504332;;;7.375;100.0
15558;BME280;7880;50.110;9.372;2024-02-26T21:25:10;7.446900439175079;;;7.375;100.0
15558;BME280;7880;50.110;9.372;2024-02-26T21:30:16;7.325889534881571;;;7.25;100.0
15558;BME280;7880;50.110;9.372;2024-02-26T21:35:25;7.144373492762679;;;7.125;100.0
15558;BME280;7880;50.110;9.372;2024-02-26T21:40:35;7.230089354538359;;;7.125;100.0
15558;BME280;7880;50.110;9.372;2024-02-26T21:45:37;7.310763183631934;;;7.187;100.0
15558;BME280;7880;50.110;9.372;2024-02-26T21:50:47;7.225047242693836;;;7.187;100.0
15558;BME280;7880;50.110;9.372;2024-02-26T21:55:48;7.225047242693836;;;7.125;100.0
15558;BME280;7880;50.110;9.372;2024-02-26T22:00:54;7.280510488990695;;;7.187;100.0
15558;BME280;7880;50.110;9.372;2024-02-26T22:05:59;7.265384145599091;;;7.187;100.0
15558;BME280;7880;50.110;9.372;2024-02-26T22:11:07;7.300678950920701;;;7.187;100.0
15558;BME280;7880;50.110;9.372;2024-02-26T22:16:12;7.209920908906497;;;7.187;100.0
15558;BME280;7880;50.110;9.372;2024-02-26T22:21:19;7.300678950920701;;;7.187;100.0
15558;BME280;7880;50.110;9.372;2024-02-26T22:26:29;7.275468374235788;;;7.187;100.0
15558;BME280;7880;50.110;9.372;2024-02-26T22:31:34;7.245215691818157;;;7.125;100.0
15558;BME280;7880;50.110;9.372;2024-02-26T22:36:44;7.300678950920701;;;7.187;100.0
15558;BME280;7880;50.110;9.372;2024-02-26T22:41:49;7.2603420317173;;;7.187;100.0
15558;BME280;7880;50.110;9.372;2024-02-26T22:46:14;7.194794577738503;;;7.125;100.0
15558;BME280;7880;50.110;9.372;2024-02-26T22:51:22;7.184710358415032;;;7.062;100.0
15558;BME280;7880;50.110;9.372;2024-02-26T22:56:32;7.2200051311403515;;;7.125;100.0
15558;BME280;7880;50.110;9.372;2024-02-26T23:01:38;7.240173579100519;;;7.125;100.0
15558;BME280;7880;50.110;9.372;2024-02-26T23:06:44;7.204878798226128;;;7.125;100.0
15558;BME280;7880;50.110;9.372;2024-02-26T23:11:53;7.154457707429538;;;7.062;100.0
15558;BME280;7880;50.110;9.372;2024-02-26T23:17:00;7.23513146667392;;;7.125;100.0
15558;BME280;7880;50.110;9.372;2024-02-26T23:22:06;7.265384145599091;;;7.125;100.0
15558;BME280;7880;50.110;9.372;2024-02-26T23:27:17;7.124205066921422;;;7.062;100.0
15558;BME280;7880;50.110;9.372;2024-02-26T23:32:17;7.2200051311403515;;;7.125;100.0
15558;BME280;7880;50.110;9.372;2024-02-26T23:37:30;7.164541923260549;;;7.062;100.0
15558;BME280;7880;50.110;9.372;2024-02-26T23:42:32;7.214963019877905;;;7.125;100.0
15558;BME280;7880;50.110;9.372;2024-02-26T23:47:43;7.114120855747023;;;7.062;100.0
15558;BME280;7880;50.110;9.372;2024-02-26T23:52:51;7.083868229208747;;;7.0;100.0
15558;BME280;7880;50.110;9.372;2024-02-26T23:58:03;7.05361561314785;;;6.937;100.0
